createdAt,value
2018-07-27T00:01:41.227Z,99919.74
2018-07-27T00:04:09.423Z,99921.40
2018-07-27T00:06:37.786Z,99917.94
2018-07-27T00:09:08.963Z,99913.67
2018-07-27T00:11:37.138Z,99914.70
2018-07-27T00:14:05.278Z,99915.83
2018-07-27T00:16:33.366Z,99917.09
2018-07-27T00:19:01.686Z,99909.09
2018-07-27T00:21:30.294Z,99902.50
2018-07-27T00:23:59.105Z,99904.14
2018-07-27T00:26:28.163Z,99905.42
2018-07-27T00:28:56.341Z,99909.54
2018-07-27T00:31:24.460Z,99910.94
2018-07-27T00:33:53.114Z,99907.48
2018-07-27T00:36:21.729Z,99909.98
2018-07-27T00:38:49.965Z,99911.70
2018-07-27T00:41:20.387Z,99911.67
2018-07-27T00:43:49.350Z,99908.63
2018-07-27T00:46:17.482Z,99912.30
2018-07-27T00:48:45.631Z,99912.73
2018-07-27T00:51:14.103Z,99912.44
2018-07-27T00:53:42.405Z,99910.86
2018-07-27T00:56:10.498Z,99910.77
2018-07-27T00:58:38.664Z,99904.73
2018-07-27T01:01:06.960Z,99904.38
2018-07-27T01:03:35.065Z,99911.12
2018-07-27T01:06:03.386Z,99906.02
2018-07-27T01:08:31.627Z,99908.55
2018-07-27T01:10:59.771Z,99904.74
2018-07-27T01:13:28.387Z,99904.16
2018-07-27T01:15:58.032Z,99903.72
2018-07-27T01:18:26.185Z,99903.47
2018-07-27T01:20:54.313Z,99907.59
2018-07-27T01:23:22.458Z,99900.95
2018-07-27T01:25:50.843Z,99899.80
2018-07-27T01:28:19.048Z,99898.26
2018-07-27T01:30:47.238Z,99899.51
2018-07-27T01:33:15.434Z,99903.55
2018-07-27T01:35:44.756Z,99908.81
2018-07-27T01:38:12.869Z,99900.30
2018-07-27T01:40:41.076Z,99903.19
2018-07-27T01:43:09.179Z,99897.03
2018-07-27T01:45:37.394Z,99893.62
2018-07-27T01:48:06.587Z,99897.62
2018-07-27T01:50:35.165Z,99897.62
2018-07-27T01:53:04.869Z,99890.06
2018-07-27T01:55:33.412Z,99892.03
2018-07-27T01:58:01.618Z,99892.66
2018-07-27T02:00:30.472Z,99888.61
2018-07-27T02:02:59.066Z,99891.30
2018-07-27T02:05:27.721Z,99899.00
2018-07-27T02:07:56.575Z,99897.03
2018-07-27T02:10:25.023Z,99898.62
2018-07-27T02:12:53.265Z,99890.30
2018-07-27T02:15:22.008Z,99888.97
2018-07-27T02:17:50.872Z,99894.95
2018-07-27T02:20:19.020Z,99895.63
2018-07-27T02:22:47.133Z,99890.42
2018-07-27T02:25:15.210Z,99886.97
2018-07-27T02:27:43.901Z,99892.52
2018-07-27T02:30:12.482Z,99892.27
2018-07-27T02:32:40.654Z,99896.55
2018-07-27T02:35:08.954Z,99891.73
2018-07-27T02:37:38.491Z,99892.69
2018-07-27T02:40:07.550Z,99888.42
2018-07-27T02:42:35.932Z,99892.69
2018-07-27T02:45:04.057Z,99900.09
2018-07-27T02:47:32.307Z,99893.78
2018-07-27T02:50:00.996Z,99894.86
2018-07-27T02:52:29.230Z,99895.52
2018-07-27T02:54:57.748Z,99893.86
2018-07-27T02:57:26.037Z,99896.41
2018-07-27T02:59:54.360Z,99888.71
2018-07-27T03:02:22.463Z,99886.98
2018-07-27T03:04:52.942Z,99882.41
2018-07-27T03:07:22.740Z,99879.38
2018-07-27T03:09:52.472Z,99888.23
2018-07-27T03:12:20.534Z,99887.61
2018-07-27T03:14:49.059Z,99890.11
2018-07-27T03:17:17.332Z,99882.59
2018-07-27T03:19:45.477Z,99895.20
2018-07-27T03:22:13.576Z,99892.22
2018-07-27T03:24:42.512Z,99895.80
2018-07-27T03:27:12.187Z,99890.19
2018-07-27T03:29:40.909Z,99888.13
2018-07-27T03:32:09.358Z,99884.27
2018-07-27T03:34:39.821Z,99893.83
2018-07-27T03:37:07.921Z,99892.05
2018-07-27T03:39:36.918Z,99888.34
2018-07-27T03:42:05.238Z,99895.84
2018-07-27T03:44:33.264Z,99889.89
2018-07-27T03:47:01.575Z,99889.03
2018-07-27T03:49:29.893Z,99892.89
2018-07-27T03:51:58.099Z,99891.75
2018-07-27T03:54:26.180Z,99892.84
2018-07-27T03:56:54.454Z,99889.73
2018-07-27T03:59:22.554Z,99884.92
2018-07-27T04:01:50.654Z,99884.48
2018-07-27T04:04:18.772Z,99880.53
2018-07-27T04:06:46.843Z,99883.60
2018-07-27T04:09:15.447Z,99886.87
2018-07-27T04:11:43.983Z,99887.01
2018-07-27T04:14:12.138Z,99881.73
2018-07-27T04:16:41.154Z,99878.11
2018-07-27T04:19:09.274Z,99884.39
2018-07-27T04:21:37.597Z,99882.18
2018-07-27T04:24:06.675Z,99879.98
2018-07-27T04:26:34.781Z,99888.91
2018-07-27T04:29:02.944Z,99887.36
2018-07-27T04:31:31.032Z,99882.52
2018-07-27T04:33:59.146Z,99886.80
2018-07-27T04:36:27.215Z,99883.82
2018-07-27T04:38:55.465Z,99883.29
2018-07-27T04:41:23.604Z,99877.47
2018-07-27T04:51:41.325Z,99876.62
2018-07-27T04:54:09.644Z,99877.59
2018-07-27T04:56:38.696Z,99879.64
2018-07-27T04:59:06.837Z,99884.40
2018-07-27T05:01:34.875Z,99882.84
2018-07-27T05:04:06.753Z,99886.66
2018-07-27T05:06:34.903Z,99890.27
2018-07-27T05:09:08.298Z,99881.36
2018-07-27T05:11:36.359Z,99885.11
2018-07-27T05:14:07.125Z,99878.58
2018-07-27T05:16:36.166Z,99879.68
2018-07-27T05:19:04.690Z,99882.18
2018-07-27T05:21:32.822Z,99885.20
2018-07-27T05:24:00.966Z,99886.48
2018-07-27T05:26:29.006Z,99889.14
2018-07-27T05:28:57.161Z,99886.52
2018-07-27T05:31:25.193Z,99890.66
2018-07-27T05:33:54.581Z,99890.59
2018-07-27T05:36:22.945Z,99894.25
2018-07-27T05:38:51.367Z,99894.82
2018-07-27T05:41:19.758Z,99894.69
2018-07-27T05:43:48.219Z,99899.10
2018-07-27T05:46:17.793Z,99891.86
2018-07-27T05:48:46.019Z,99895.45
2018-07-27T05:51:15.391Z,99896.66
2018-07-27T05:53:43.530Z,99900.86
2018-07-27T05:56:11.615Z,99898.16
2018-07-27T05:58:39.974Z,99901.80
2018-07-27T06:01:10.094Z,99895.73
2018-07-27T06:03:39.112Z,99896.85
2018-07-27T06:06:08.730Z,99904.00
2018-07-27T06:08:36.895Z,99898.02
2018-07-27T06:11:05.151Z,99901.59
2018-07-27T06:13:35.114Z,99910.81
2018-07-27T06:16:03.654Z,99902.66
2018-07-27T06:18:31.728Z,99905.41
2018-07-27T06:20:59.906Z,99906.13
2018-07-27T06:23:27.955Z,99900.14
2018-07-27T06:25:56.070Z,99895.71
2018-07-27T06:28:25.099Z,99897.66
2018-07-27T06:30:53.239Z,99891.46
2018-07-27T06:33:22.248Z,99889.09
2018-07-27T06:35:51.216Z,99889.09
2018-07-27T06:38:19.315Z,99894.19
2018-07-27T06:40:47.406Z,99896.84
2018-07-27T06:43:15.514Z,99896.91
2018-07-27T06:45:44.171Z,99893.25
2018-07-27T06:48:19.759Z,99895.53
2018-07-27T06:50:49.465Z,99892.30
2018-07-27T06:53:17.693Z,99896.19
2018-07-27T06:55:47.261Z,99893.40
2018-07-27T06:58:15.708Z,99897.56
2018-07-27T07:00:44.985Z,99894.89
2018-07-27T07:03:15.175Z,99896.12
2018-07-27T07:05:43.906Z,99899.62
2018-07-27T07:08:13.851Z,99898.48
2018-07-27T07:10:42.324Z,99901.13
2018-07-27T07:13:10.443Z,99897.31
2018-07-27T07:15:38.552Z,99894.48
2018-07-27T07:18:06.640Z,99894.63
2018-07-27T07:20:34.698Z,99894.59
2018-07-27T07:23:02.867Z,99893.77
2018-07-27T07:25:31.166Z,99892.20
2018-07-27T07:27:59.206Z,99897.05
2018-07-27T07:30:29.358Z,99890.39
2018-07-27T07:33:00.119Z,99888.97
2018-07-27T07:35:29.252Z,99887.16
2018-07-27T07:37:58.267Z,99890.97
2018-07-27T07:40:27.030Z,99889.86
2018-07-27T07:42:57.261Z,99891.31
2018-07-27T07:45:25.688Z,99882.13
2018-07-27T07:47:53.875Z,99879.77
2018-07-27T07:50:22.246Z,99879.09
2018-07-27T07:52:51.822Z,99874.33
2018-07-27T07:55:20.905Z,99876.64
2018-07-27T07:57:49.171Z,99872.51
2018-07-27T08:00:18.522Z,99873.17
2018-07-27T08:02:46.614Z,99872.64
2018-07-27T08:05:14.749Z,99870.41
2018-07-27T08:07:44.202Z,99867.11
2018-07-27T08:10:12.435Z,99866.08
2018-07-27T08:12:40.839Z,99863.40
2018-07-27T08:15:09.576Z,99866.95
2018-07-27T08:17:37.722Z,99866.76
2018-07-27T08:20:05.885Z,99867.80
2018-07-27T08:22:35.415Z,99858.80
2018-07-27T08:25:04.723Z,99851.18
2018-07-27T08:27:33.498Z,99859.67
2018-07-27T08:30:01.880Z,99859.84
2018-07-27T08:32:31.279Z,99856.20
2018-07-27T08:34:59.767Z,99859.66
2018-07-27T08:37:27.927Z,99861.72
2018-07-27T08:39:56.134Z,99854.94
2018-07-27T08:42:25.064Z,99855.73
2018-07-27T08:44:55.023Z,99850.58
2018-07-27T08:47:23.763Z,99852.88
2018-07-27T08:49:53.176Z,99845.38
2018-07-27T08:52:21.408Z,99846.42
2018-07-27T08:54:51.271Z,99841.64
2018-07-27T08:57:20.539Z,99843.67
2018-07-27T08:59:48.768Z,99844.55
2018-07-27T09:02:16.887Z,99839.06
2018-07-27T09:04:44.978Z,99835.75
2018-07-27T09:07:13.224Z,99832.20
2018-07-27T09:09:41.390Z,99836.16
2018-07-27T09:12:10.243Z,99833.52
2018-07-27T09:14:39.447Z,99829.68
2018-07-27T09:17:07.657Z,99822.59
2018-07-27T09:19:35.790Z,99820.02
2018-07-27T09:22:03.985Z,99817.61
2018-07-27T09:24:32.294Z,99820.52
2018-07-27T09:27:01.961Z,99817.33
2018-07-27T09:29:30.903Z,99819.20
2018-07-27T09:31:58.929Z,99815.98
2018-07-27T09:34:33.661Z,99814.55
2018-07-27T09:37:02.469Z,99814.33
2018-07-27T09:39:30.670Z,99818.80
2018-07-27T09:41:58.897Z,99814.55
2018-07-27T09:44:27.019Z,99811.21
2018-07-27T09:46:55.136Z,99820.37
2018-07-27T09:49:27.950Z,99817.20
2018-07-27T09:51:56.186Z,99810.05
2018-07-27T09:54:24.358Z,99812.88
2018-07-27T09:56:53.453Z,99813.78
2018-07-27T09:59:21.643Z,99812.19
2018-07-27T10:01:50.004Z,99812.97
2018-07-27T10:04:18.282Z,99809.75
2018-07-27T10:06:46.451Z,99802.33
2018-07-27T10:09:16.892Z,99802.73
2018-07-27T10:11:45.082Z,99796.23
2018-07-27T10:14:13.252Z,99802.06
2018-07-27T10:16:42.400Z,99804.71
2018-07-27T10:19:10.612Z,99793.83
2018-07-27T10:21:38.705Z,99791.70
2018-07-27T10:24:06.849Z,99793.61
2018-07-27T10:26:35.123Z,99793.67
2018-07-27T10:29:03.196Z,99786.31
2018-07-27T10:31:32.210Z,99787.53
2018-07-27T10:34:00.315Z,99784.09
2018-07-27T10:36:28.506Z,99785.59
2018-07-27T10:38:56.668Z,99779.63
2018-07-27T10:41:27.002Z,99777.08
2018-07-27T10:43:55.154Z,99777.95
2018-07-27T10:46:24.354Z,99766.74
2018-07-27T10:48:53.324Z,99762.14
2018-07-27T10:51:21.970Z,99771.52
2018-07-27T10:53:52.515Z,99758.05
2018-07-27T10:56:21.025Z,99762.89
2018-07-27T10:58:53.412Z,99759.13
2018-07-27T11:01:24.305Z,99751.72
2018-07-27T11:03:52.440Z,99750.46
2018-07-27T11:06:20.663Z,99748.00
2018-07-27T11:08:48.799Z,99748.10
2018-07-27T11:11:17.055Z,99744.42
2018-07-27T11:13:45.220Z,99742.92
2018-07-27T11:16:13.955Z,99742.03
2018-07-27T11:18:42.013Z,99736.73
2018-07-27T11:21:10.205Z,99737.41
2018-07-27T11:23:38.288Z,99726.81
2018-07-27T11:26:06.553Z,99730.06
2018-07-27T11:28:34.872Z,99726.09
2018-07-27T11:31:04.288Z,99724.41
2018-07-27T11:33:33.767Z,99726.23
2018-07-27T11:36:01.975Z,99731.20
2018-07-27T11:38:31.043Z,99720.35
2018-07-27T11:40:59.422Z,99728.31
2018-07-27T11:43:27.506Z,99712.95
2018-07-27T11:45:55.780Z,99702.42
2018-07-27T11:48:25.205Z,99708.53
2018-07-27T11:50:55.660Z,99701.23
2018-07-27T12:01:39.976Z,99698.24
2018-07-27T12:04:08.240Z,99689.66
2018-07-27T12:23:53.516Z,99660.22
2018-07-27T12:26:21.882Z,99655.88
2018-07-27T12:28:53.387Z,99650.66
2018-07-27T12:48:38.449Z,99625.96
2018-07-27T13:08:23.065Z,99609.95
2018-07-27T13:10:51.590Z,99602.87
2018-07-27T13:13:19.807Z,99599.39
2018-07-27T13:15:47.935Z,99596.32
2018-07-27T13:18:15.983Z,99594.38
2018-07-27T13:20:50.507Z,99592.30
2018-07-27T13:23:19.005Z,99581.48
2018-07-27T13:28:44.081Z,99581.07
2018-07-27T13:31:13.371Z,99584.24
2018-07-27T13:34:57.401Z,99573.36
2018-07-27T13:37:27.698Z,99581.83
2018-07-27T13:39:57.382Z,99573.80
2018-07-27T13:42:28.122Z,99562.09
2018-07-27T13:44:57.180Z,99548.84
2018-07-27T13:47:25.722Z,99546.21
2018-07-27T14:07:09.920Z,99542.79
2018-07-27T14:09:38.489Z,99541.70
2018-07-27T14:29:24.223Z,99511.36
2018-07-27T14:31:53.895Z,99506.33
2018-07-27T14:34:22.197Z,99502.23
2018-07-27T14:36:50.294Z,99499.50
2018-07-27T14:39:19.197Z,99493.89
2018-07-27T14:41:49.606Z,99503.63
2018-07-27T14:44:18.525Z,99498.32
2018-07-27T14:46:46.664Z,99500.80
2018-07-27T14:49:17.119Z,99502.61
2018-07-27T14:51:45.313Z,99493.72
2018-07-27T15:11:28.362Z,99469.30
2018-07-27T15:13:56.819Z,99472.77
2018-07-27T15:16:25.300Z,99468.05
2018-07-27T15:18:53.414Z,99465.45
2018-07-27T15:21:21.493Z,99463.18
2018-07-27T15:23:49.572Z,99464.80
2018-07-27T15:26:17.763Z,99465.19
2018-07-27T15:46:00.211Z,99456.41
2018-07-27T15:48:28.938Z,99451.36
2018-07-27T15:50:57.533Z,99442.88
2018-07-27T16:10:41.301Z,99435.61
2018-07-27T16:13:11.102Z,99439.08
2018-07-27T16:15:39.211Z,99429.02
2018-07-27T16:35:24.678Z,99433.09
2018-07-27T16:55:08.487Z,99423.86
2018-07-27T16:57:36.840Z,99423.88
2018-07-27T17:00:05.125Z,99422.64
2018-07-27T17:19:52.487Z,99418.45
2018-07-27T17:39:36.759Z,99414.00
2018-07-27T17:42:05.013Z,99418.83
2018-07-27T17:44:36.357Z,99418.38
2018-07-27T17:47:04.875Z,99420.88
2018-07-27T17:49:33.137Z,99423.53
2018-07-27T17:52:01.199Z,99427.41
2018-07-27T17:54:29.386Z,99419.80
2018-07-27T17:56:58.786Z,99419.46
2018-07-27T17:59:26.925Z,99422.91
2018-07-27T18:01:57.181Z,99420.06
2018-07-27T18:04:26.060Z,99418.44
2018-07-27T18:06:54.147Z,99423.48
2018-07-27T18:09:22.300Z,99419.83
2018-07-27T18:11:50.600Z,99428.77
2018-07-27T18:14:18.876Z,99426.11
2018-07-27T18:16:51.750Z,99419.43
2018-07-27T18:19:21.573Z,99422.52
2018-07-27T18:21:49.650Z,99423.53
2018-07-27T18:24:20.817Z,99428.18
2018-07-27T18:26:49.450Z,99420.56
2018-07-27T18:29:17.596Z,99423.01
2018-07-27T18:31:45.841Z,99423.36
2018-07-27T18:34:14.081Z,99427.50
2018-07-27T18:36:42.330Z,99420.41
2018-07-27T18:39:12.070Z,99420.41
2018-07-27T18:41:40.563Z,99424.45
2018-07-27T18:44:09.394Z,99424.34
2018-07-27T18:46:38.569Z,99417.30
2018-07-27T18:49:06.791Z,99423.23
2018-07-27T18:51:35.116Z,99424.49
2018-07-27T18:54:04.007Z,99419.28
2018-07-27T18:56:34.668Z,99415.34
2018-07-27T18:59:02.936Z,99418.19
2018-07-27T19:01:31.404Z,99409.86
2018-07-27T19:03:59.538Z,99415.89
2018-07-27T19:06:28.603Z,99415.86
2018-07-27T19:08:56.856Z,99417.44
2018-07-27T19:11:26.028Z,99412.89
2018-07-27T19:13:54.941Z,99421.25
2018-07-27T19:33:39.762Z,99429.37
2018-07-27T19:36:07.958Z,99442.56
2018-07-27T19:38:36.572Z,99434.83
2018-07-27T19:41:05.224Z,99438.59
2018-07-27T19:43:33.314Z,99439.11
2018-07-27T19:46:02.244Z,99442.09
2018-07-27T19:48:30.362Z,99452.61
2018-07-27T19:50:58.594Z,99455.13
2018-07-27T20:10:42.131Z,99466.74
2018-07-27T20:13:10.371Z,99471.92
2018-07-27T20:15:38.522Z,99468.95
2018-07-27T20:18:06.727Z,99467.48
2018-07-27T20:37:51.381Z,99456.83
2018-07-27T20:57:35.449Z,99458.56
2018-07-27T21:00:03.607Z,99457.14
2018-07-27T21:02:32.240Z,99456.55
2018-07-27T21:05:00.400Z,99452.87
2018-07-27T21:07:28.499Z,99457.92
2018-07-27T21:09:56.941Z,99458.52
2018-07-27T21:12:24.983Z,99454.11
2018-07-27T21:14:53.058Z,99455.01
2018-07-27T21:17:21.142Z,99447.72
2018-07-27T21:19:49.447Z,99452.58
2018-07-27T21:22:18.809Z,99450.72
2018-07-27T21:24:46.924Z,99452.70
2018-07-27T21:27:14.978Z,99451.28
2018-07-27T21:29:43.065Z,99448.55
2018-07-27T21:32:11.197Z,99446.45
2018-07-27T21:34:39.279Z,99455.41
2018-07-27T21:37:07.460Z,99454.41
2018-07-27T21:56:52.763Z,99436.70
2018-07-27T21:59:21.490Z,99438.19
2018-07-27T22:01:49.938Z,99434.55
2018-07-27T22:04:18.110Z,99427.81
2018-07-27T22:06:46.259Z,99426.97
2018-07-27T22:09:14.394Z,99430.30
2018-07-27T22:11:42.526Z,99428.73
2018-07-27T22:14:10.983Z,99421.31
2018-07-27T22:16:39.151Z,99426.81
2018-07-27T22:19:09.049Z,99418.45
2018-07-27T22:38:54.681Z,99422.61
2018-07-27T22:41:22.851Z,99427.63
2018-07-27T22:43:51.390Z,99427.09
2018-07-27T22:46:19.719Z,99426.46
2018-07-27T22:48:47.988Z,99424.19
2018-07-27T22:51:16.164Z,99424.75
2018-07-27T22:53:44.362Z,99426.80
2018-07-27T22:56:12.557Z,99422.97
2018-07-27T22:58:41.629Z,99423.88
2018-07-27T23:01:09.791Z,99421.41
2018-07-27T23:03:38.837Z,99423.13
2018-07-27T23:06:07.392Z,99426.16
2018-07-27T23:08:35.488Z,99434.99
2018-07-27T23:11:04.030Z,99436.47
2018-07-27T23:13:32.088Z,99435.72
2018-07-27T23:16:00.196Z,99434.21
2018-07-27T23:18:29.252Z,99429.20
2018-07-27T23:20:57.530Z,99425.09
2018-07-27T23:23:25.690Z,99430.44
2018-07-27T23:25:54.005Z,99424.08
2018-07-27T23:28:22.161Z,99434.89
2018-07-27T23:30:50.374Z,99428.26
2018-07-27T23:33:19.219Z,99431.02
2018-07-27T23:35:47.347Z,99428.65
2018-07-27T23:38:15.745Z,99422.40
2018-07-27T23:40:43.894Z,99413.64
2018-07-27T23:43:12.675Z,99414.84
2018-07-27T23:45:40.780Z,99415.91
2018-07-27T23:48:09.054Z,99416.17
2018-07-27T23:50:37.519Z,99419.11
2018-07-27T23:53:06.658Z,99412.58
2018-07-27T23:55:36.421Z,99411.48
2018-07-27T23:58:04.777Z,99408.50
